sensor_id;sensor_type;location;lat;lon;timestamp;P1;durP1;ratioP1;P2;durP2;ratioP2
23232;SDS011;11785;49.500;8.288;2022-10-18T00:01:47;12.90;;;8.05;;
23232;SDS011;11785;49.500;8.288;2022-10-18T00:04:12;15.45;;;7.82;;
23232;SDS011;11785;49.500;8.288;2022-10-18T00:06:38;17.80;;;9.15;;
23232;SDS011;11785;49.500;8.288;2022-10-18T00:09:04;14.82;;;8.32;;
23232;SDS011;11785;49.500;8.288;2022-10-18T00:11:29;15.80;;;7.72;;
23232;SDS011;11785;49.500;8.288;2022-10-18T00:13:55;18.83;;;8.60;;
23232;SDS011;11785;49.500;8.288;2022-10-18T00:16:21;15.07;;;8.18;;
23232;SDS011;11785;49.500;8.288;2022-10-18T00:18:47;13.70;;;8.18;;
23232;SDS011;11785;49.500;8.288;2022-10-18T00:21:14;14.73;;;8.55;;
23232;SDS011;11785;49.500;8.288;2022-10-18T00:23:42;15.95;;;8.32;;
23232;SDS011;11785;49.500;8.288;2022-10-18T00:26:19;13.02;;;8.23;;
23232;SDS011;11785;49.500;8.288;2022-10-18T00:28:51;11.02;;;8.13;;
23232;SDS011;11785;49.500;8.288;2022-10-18T00:31:22;16.15;;;8.43;;
23232;SDS011;11785;49.500;8.288;2022-10-18T00:33:51;15.15;;;8.63;;
23232;SDS011;11785;49.500;8.288;2022-10-18T00:36:18;22.35;;;8.70;;
23232;SDS011;11785;49.500;8.288;2022-10-18T00:38:45;19.63;;;8.98;;
23232;SDS011;11785;49.500;8.288;2022-10-18T00:41:13;17.23;;;9.15;;
23232;SDS011;11785;49.500;8.288;2022-10-18T00:44:01;16.02;;;9.85;;
23232;SDS011;11785;49.500;8.288;2022-10-18T00:46:32;15.52;;;8.73;;
23232;SDS011;11785;49.500;8.288;2022-10-18T00:49:04;17.48;;;9.55;;
23232;SDS011;11785;49.500;8.288;2022-10-18T00:51:37;16.67;;;9.13;;
23232;SDS011;11785;49.500;8.288;2022-10-18T00:54:08;21.73;;;9.82;;
23232;SDS011;11785;49.500;8.288;2022-10-18T00:56:33;18.35;;;9.60;;
23232;SDS011;11785;49.500;8.288;2022-10-18T00:58:59;18.55;;;9.77;;
23232;SDS011;11785;49.500;8.288;2022-10-18T01:01:25;14.77;;;9.23;;
23232;SDS011;11785;49.500;8.288;2022-10-18T01:03:51;18.70;;;9.60;;
23232;SDS011;11785;49.500;8.288;2022-10-18T01:06:17;12.75;;;8.95;;
23232;SDS011;11785;49.500;8.288;2022-10-18T01:13:47;11.15;;;8.85;;
23232;SDS011;11785;49.500;8.288;2022-10-18T01:19:26;15.70;;;9.43;;
23232;SDS011;11785;49.500;8.288;2022-10-18T01:25:00;12.88;;;9.30;;
23232;SDS011;11785;49.500;8.288;2022-10-18T01:27:37;17.70;;;8.63;;
23232;SDS011;11785;49.500;8.288;2022-10-18T01:30:37;12.43;;;8.45;;
23232;SDS011;11785;49.500;8.288;2022-10-18T01:33:32;15.30;;;9.27;;
23232;SDS011;11785;49.500;8.288;2022-10-18T01:38:32;14.95;;;9.23;;
23232;SDS011;11785;49.500;8.288;2022-10-18T01:41:00;16.13;;;8.32;;
23232;SDS011;11785;49.500;8.288;2022-10-18T01:43:29;15.63;;;9.13;;
23232;SDS011;11785;49.500;8.288;2022-10-18T01:45:57;14.43;;;9.35;;
23232;SDS011;11785;49.500;8.288;2022-10-18T01:48:24;18.70;;;8.85;;
23232;SDS011;11785;49.500;8.288;2022-10-18T01:50:51;18.33;;;9.07;;
23232;SDS011;11785;49.500;8.288;2022-10-18T01:53:30;15.50;;;8.95;;
23232;SDS011;11785;49.500;8.288;2022-10-18T02:02:05;17.20;;;8.77;;
23232;SDS011;11785;49.500;8.288;2022-10-18T02:06:52;16.02;;;8.60;;
23232;SDS011;11785;49.500;8.288;2022-10-18T02:09:30;17.60;;;9.40;;
23232;SDS011;11785;49.500;8.288;2022-10-18T02:12:03;20.45;;;9.60;;
23232;SDS011;11785;49.500;8.288;2022-10-18T02:14:31;14.75;;;9.30;;
23232;SDS011;11785;49.500;8.288;2022-10-18T02:16:58;20.30;;;9.45;;
23232;SDS011;11785;49.500;8.288;2022-10-18T02:19:30;15.00;;;9.85;;
23232;SDS011;11785;49.500;8.288;2022-10-18T02:22:10;20.85;;;10.23;;
23232;SDS011;11785;49.500;8.288;2022-10-18T02:24:38;18.58;;;9.52;;
23232;SDS011;11785;49.500;8.288;2022-10-18T02:27:08;15.23;;;9.07;;
23232;SDS011;11785;49.500;8.288;2022-10-18T02:29:34;13.88;;;9.35;;
23232;SDS011;11785;49.500;8.288;2022-10-18T02:32:19;22.20;;;9.00;;
23232;SDS011;11785;49.500;8.288;2022-10-18T02:35:04;18.08;;;9.82;;
23232;SDS011;11785;49.500;8.288;2022-10-18T02:37:38;17.63;;;8.50;;
23232;SDS011;11785;49.500;8.288;2022-10-18T02:40:05;15.98;;;9.00;;
23232;SDS011;11785;49.500;8.288;2022-10-18T02:42:36;13.98;;;9.65;;
23232;SDS011;11785;49.500;8.288;2022-10-18T02:45:11;13.75;;;8.68;;
23232;SDS011;11785;49.500;8.288;2022-10-18T02:47:38;20.05;;;9.82;;
23232;SDS011;11785;49.500;8.288;2022-10-18T02:50:03;16.95;;;9.75;;
23232;SDS011;11785;49.500;8.288;2022-10-18T02:52:29;20.10;;;9.27;;
23232;SDS011;11785;49.500;8.288;2022-10-18T02:54:55;15.48;;;9.15;;
23232;SDS011;11785;49.500;8.288;2022-10-18T02:57:20;19.52;;;9.93;;
23232;SDS011;11785;49.500;8.288;2022-10-18T02:59:46;14.48;;;8.93;;
23232;SDS011;11785;49.500;8.288;2022-10-18T03:02:12;15.35;;;9.02;;
23232;SDS011;11785;49.500;8.288;2022-10-18T03:04:37;20.15;;;9.40;;
23232;SDS011;11785;49.500;8.288;2022-10-18T03:07:03;15.93;;;8.93;;
23232;SDS011;11785;49.500;8.288;2022-10-18T03:09:29;13.82;;;8.20;;
23232;SDS011;11785;49.500;8.288;2022-10-18T03:11:54;11.32;;;8.50;;
23232;SDS011;11785;49.500;8.288;2022-10-18T03:14:20;18.65;;;8.57;;
23232;SDS011;11785;49.500;8.288;2022-10-18T03:16:45;14.55;;;8.77;;
23232;SDS011;11785;49.500;8.288;2022-10-18T03:19:11;12.80;;;8.95;;
23232;SDS011;11785;49.500;8.288;2022-10-18T03:21:36;13.68;;;8.73;;
23232;SDS011;11785;49.500;8.288;2022-10-18T03:24:02;12.80;;;9.18;;
23232;SDS011;11785;49.500;8.288;2022-10-18T03:26:28;16.25;;;8.55;;
23232;SDS011;11785;49.500;8.288;2022-10-18T03:28:53;14.95;;;8.63;;
23232;SDS011;11785;49.500;8.288;2022-10-18T03:31:19;16.35;;;8.18;;
23232;SDS011;11785;49.500;8.288;2022-10-18T03:33:45;17.45;;;8.75;;
23232;SDS011;11785;49.500;8.288;2022-10-18T03:36:10;16.95;;;9.93;;
23232;SDS011;11785;49.500;8.288;2022-10-18T03:38:36;19.55;;;9.43;;
23232;SDS011;11785;49.500;8.288;2022-10-18T03:41:02;16.98;;;9.80;;
23232;SDS011;11785;49.500;8.288;2022-10-18T03:43:28;19.70;;;9.32;;
23232;SDS011;11785;49.500;8.288;2022-10-18T03:45:53;22.20;;;9.35;;
23232;SDS011;11785;49.500;8.288;2022-10-18T03:48:19;17.33;;;9.80;;
23232;SDS011;11785;49.500;8.288;2022-10-18T03:50:45;19.98;;;10.25;;
23232;SDS011;11785;49.500;8.288;2022-10-18T03:53:10;18.45;;;10.57;;
23232;SDS011;11785;49.500;8.288;2022-10-18T03:55:36;15.15;;;9.75;;
23232;SDS011;11785;49.500;8.288;2022-10-18T03:58:02;16.88;;;10.02;;
23232;SDS011;11785;49.500;8.288;2022-10-18T04:00:28;12.43;;;8.90;;
23232;SDS011;11785;49.500;8.288;2022-10-18T04:02:54;17.75;;;9.48;;
23232;SDS011;11785;49.500;8.288;2022-10-18T04:05:19;15.48;;;9.40;;
23232;SDS011;11785;49.500;8.288;2022-10-18T04:07:47;21.38;;;9.20;;
23232;SDS011;11785;49.500;8.288;2022-10-18T04:10:13;18.40;;;8.68;;
23232;SDS011;11785;49.500;8.288;2022-10-18T04:12:38;17.00;;;8.57;;
23232;SDS011;11785;49.500;8.288;2022-10-18T04:15:04;16.13;;;8.95;;
23232;SDS011;11785;49.500;8.288;2022-10-18T04:17:30;15.77;;;8.95;;
23232;SDS011;11785;49.500;8.288;2022-10-18T04:19:56;14.45;;;9.15;;
23232;SDS011;11785;49.500;8.288;2022-10-18T04:22:21;16.17;;;9.18;;
23232;SDS011;11785;49.500;8.288;2022-10-18T04:24:47;18.40;;;9.95;;
23232;SDS011;11785;49.500;8.288;2022-10-18T04:27:12;14.07;;;9.30;;
23232;SDS011;11785;49.500;8.288;2022-10-18T04:29:38;18.17;;;9.80;;
23232;SDS011;11785;49.500;8.288;2022-10-18T04:32:03;12.70;;;9.15;;
23232;SDS011;11785;49.500;8.288;2022-10-18T04:34:29;16.90;;;9.90;;
23232;SDS011;11785;49.500;8.288;2022-10-18T04:36:55;11.93;;;9.23;;
23232;SDS011;11785;49.500;8.288;2022-10-18T04:39:20;19.75;;;9.88;;
23232;SDS011;11785;49.500;8.288;2022-10-18T04:41:46;13.48;;;9.07;;
23232;SDS011;11785;49.500;8.288;2022-10-18T04:44:11;14.43;;;9.52;;
23232;SDS011;11785;49.500;8.288;2022-10-18T04:46:37;17.42;;;9.07;;
23232;SDS011;11785;49.500;8.288;2022-10-18T04:49:02;15.50;;;9.60;;
23232;SDS011;11785;49.500;8.288;2022-10-18T04:51:28;13.13;;;8.73;;
23232;SDS011;11785;49.500;8.288;2022-10-18T04:53:54;15.73;;;9.88;;
23232;SDS011;11785;49.500;8.288;2022-10-18T04:56:20;17.77;;;9.30;;
23232;SDS011;11785;49.500;8.288;2022-10-18T04:58:45;15.57;;;9.30;;
23232;SDS011;11785;49.500;8.288;2022-10-18T05:01:11;16.63;;;10.05;;
23232;SDS011;11785;49.500;8.288;2022-10-18T05:03:37;20.15;;;10.70;;
23232;SDS011;11785;49.500;8.288;2022-10-18T05:06:02;19.63;;;10.02;;
23232;SDS011;11785;49.500;8.288;2022-10-18T05:08:30;17.63;;;10.93;;
23232;SDS011;11785;49.500;8.288;2022-10-18T05:10:56;24.30;;;11.15;;
23232;SDS011;11785;49.500;8.288;2022-10-18T05:13:22;13.80;;;10.52;;
23232;SDS011;11785;49.500;8.288;2022-10-18T05:15:47;18.92;;;11.70;;
23232;SDS011;11785;49.500;8.288;2022-10-18T05:18:13;17.63;;;10.45;;
23232;SDS011;11785;49.500;8.288;2022-10-18T05:20:39;17.90;;;10.23;;
23232;SDS011;11785;49.500;8.288;2022-10-18T05:23:05;17.35;;;10.73;;
23232;SDS011;11785;49.500;8.288;2022-10-18T05:25:30;14.50;;;10.50;;
23232;SDS011;11785;49.500;8.288;2022-10-18T05:27:56;23.75;;;11.85;;
23232;SDS011;11785;49.500;8.288;2022-10-18T05:30:21;20.95;;;11.05;;
23232;SDS011;11785;49.500;8.288;2022-10-18T05:32:47;22.50;;;10.77;;
23232;SDS011;11785;49.500;8.288;2022-10-18T05:35:12;16.85;;;11.20;;
23232;SDS011;11785;49.500;8.288;2022-10-18T05:37:38;19.45;;;11.80;;
23232;SDS011;11785;49.500;8.288;2022-10-18T05:40:04;16.15;;;11.90;;
23232;SDS011;11785;49.500;8.288;2022-10-18T05:42:30;18.27;;;11.75;;
23232;SDS011;11785;49.500;8.288;2022-10-18T05:44:55;25.38;;;11.73;;
23232;SDS011;11785;49.500;8.288;2022-10-18T05:47:21;22.92;;;12.05;;
23232;SDS011;11785;49.500;8.288;2022-10-18T05:49:46;26.38;;;15.98;;
23232;SDS011;11785;49.500;8.288;2022-10-18T05:52:12;19.70;;;12.20;;
23232;SDS011;11785;49.500;8.288;2022-10-18T05:54:37;20.60;;;11.38;;
23232;SDS011;11785;49.500;8.288;2022-10-18T05:57:03;23.77;;;12.50;;
23232;SDS011;11785;49.500;8.288;2022-10-18T05:59:29;23.65;;;11.90;;
23232;SDS011;11785;49.500;8.288;2022-10-18T06:01:54;19.98;;;12.18;;
23232;SDS011;11785;49.500;8.288;2022-10-18T06:04:20;24.95;;;12.40;;
23232;SDS011;11785;49.500;8.288;2022-10-18T06:06:45;19.25;;;12.45;;
23232;SDS011;11785;49.500;8.288;2022-10-18T06:09:11;18.98;;;12.27;;
23232;SDS011;11785;49.500;8.288;2022-10-18T06:11:37;21.88;;;11.20;;
23232;SDS011;11785;49.500;8.288;2022-10-18T06:14:02;18.85;;;11.38;;
23232;SDS011;11785;49.500;8.288;2022-10-18T06:16:29;20.27;;;10.82;;
23232;SDS011;11785;49.500;8.288;2022-10-18T06:18:55;17.98;;;10.90;;
23232;SDS011;11785;49.500;8.288;2022-10-18T06:21:21;19.13;;;10.65;;
23232;SDS011;11785;49.500;8.288;2022-10-18T06:23:49;17.35;;;11.05;;
23232;SDS011;11785;49.500;8.288;2022-10-18T06:26:15;20.63;;;10.70;;
23232;SDS011;11785;49.500;8.288;2022-10-18T06:28:41;16.83;;;10.85;;
23232;SDS011;11785;49.500;8.288;2022-10-18T06:31:06;14.27;;;10.35;;
23232;SDS011;11785;49.500;8.288;2022-10-18T06:33:34;15.80;;;9.18;;
23232;SDS011;11785;49.500;8.288;2022-10-18T06:36:10;20.88;;;11.00;;
23232;SDS011;11785;49.500;8.288;2022-10-18T06:38:43;18.40;;;10.63;;
23232;SDS011;11785;49.500;8.288;2022-10-18T06:41:09;19.23;;;9.93;;
23232;SDS011;11785;49.500;8.288;2022-10-18T06:43:35;22.40;;;10.02;;
23232;SDS011;11785;49.500;8.288;2022-10-18T06:46:01;19.27;;;10.32;;
23232;SDS011;11785;49.500;8.288;2022-10-18T06:48:30;19.45;;;9.95;;
23232;SDS011;11785;49.500;8.288;2022-10-18T06:50:57;20.17;;;9.98;;
23232;SDS011;11785;49.500;8.288;2022-10-18T06:53:25;17.17;;;10.07;;
23232;SDS011;11785;49.500;8.288;2022-10-18T06:55:52;13.88;;;10.15;;
23232;SDS011;11785;49.500;8.288;2022-10-18T06:58:26;19.23;;;9.57;;
23232;SDS011;11785;49.500;8.288;2022-10-18T07:00:52;16.08;;;10.13;;
23232;SDS011;11785;49.500;8.288;2022-10-18T07:03:17;15.57;;;10.10;;
23232;SDS011;11785;49.500;8.288;2022-10-18T07:05:44;20.05;;;10.20;;
23232;SDS011;11785;49.500;8.288;2022-10-18T07:08:10;19.63;;;11.20;;
23232;SDS011;11785;49.500;8.288;2022-10-18T07:10:35;20.30;;;11.20;;
23232;SDS011;11785;49.500;8.288;2022-10-18T07:13:01;21.67;;;11.35;;
23232;SDS011;11785;49.500;8.288;2022-10-18T07:15:26;23.80;;;11.52;;
23232;SDS011;11785;49.500;8.288;2022-10-18T07:17:53;21.73;;;11.52;;
23232;SDS011;11785;49.500;8.288;2022-10-18T07:20:18;22.65;;;11.77;;
23232;SDS011;11785;49.500;8.288;2022-10-18T07:22:44;18.70;;;11.80;;
23232;SDS011;11785;49.500;8.288;2022-10-18T07:25:09;27.00;;;12.63;;
23232;SDS011;11785;49.500;8.288;2022-10-18T07:27:39;21.48;;;12.57;;
23232;SDS011;11785;49.500;8.288;2022-10-18T07:30:06;23.70;;;12.00;;
23232;SDS011;11785;49.500;8.288;2022-10-18T07:32:33;20.02;;;12.05;;
23232;SDS011;11785;49.500;8.288;2022-10-18T07:34:59;20.67;;;13.13;;
23232;SDS011;11785;49.500;8.288;2022-10-18T07:37:26;25.75;;;13.82;;
23232;SDS011;11785;49.500;8.288;2022-10-18T07:39:52;22.42;;;11.98;;
23232;SDS011;11785;49.500;8.288;2022-10-18T07:42:17;14.38;;;10.82;;
23232;SDS011;11785;49.500;8.288;2022-10-18T07:44:43;19.40;;;11.30;;
23232;SDS011;11785;49.500;8.288;2022-10-18T07:47:08;15.55;;;10.65;;
23232;SDS011;11785;49.500;8.288;2022-10-18T07:49:34;16.63;;;10.20;;
23232;SDS011;11785;49.500;8.288;2022-10-18T07:52:00;17.25;;;11.35;;
23232;SDS011;11785;49.500;8.288;2022-10-18T07:54:25;22.00;;;11.07;;
23232;SDS011;11785;49.500;8.288;2022-10-18T07:56:51;18.52;;;10.40;;
23232;SDS011;11785;49.500;8.288;2022-10-18T07:59:16;18.52;;;9.50;;
23232;SDS011;11785;49.500;8.288;2022-10-18T08:01:42;16.10;;;9.30;;
23232;SDS011;11785;49.500;8.288;2022-10-18T08:04:08;19.05;;;9.23;;
23232;SDS011;11785;49.500;8.288;2022-10-18T08:06:33;16.88;;;9.25;;
23232;SDS011;11785;49.500;8.288;2022-10-18T08:08:59;17.88;;;9.20;;
23232;SDS011;11785;49.500;8.288;2022-10-18T08:11:25;16.13;;;9.63;;
23232;SDS011;11785;49.500;8.288;2022-10-18T08:13:51;21.40;;;9.95;;
23232;SDS011;11785;49.500;8.288;2022-10-18T08:16:21;23.55;;;9.98;;
23232;SDS011;11785;49.500;8.288;2022-10-18T08:18:49;20.77;;;8.80;;
23232;SDS011;11785;49.500;8.288;2022-10-18T08:21:15;12.57;;;8.10;;
23232;SDS011;11785;49.500;8.288;2022-10-18T08:23:42;13.32;;;7.82;;
23232;SDS011;11785;49.500;8.288;2022-10-18T08:26:10;8.95;;;6.65;;
23232;SDS011;11785;49.500;8.288;2022-10-18T08:28:41;13.45;;;7.43;;
23232;SDS011;11785;49.500;8.288;2022-10-18T08:31:07;11.52;;;7.80;;
23232;SDS011;11785;49.500;8.288;2022-10-18T08:33:36;12.30;;;7.95;;
23232;SDS011;11785;49.500;8.288;2022-10-18T08:36:03;16.63;;;7.40;;
23232;SDS011;11785;49.500;8.288;2022-10-18T08:38:32;12.23;;;7.20;;
23232;SDS011;11785;49.500;8.288;2022-10-18T08:40:59;18.48;;;7.90;;
23232;SDS011;11785;49.500;8.288;2022-10-18T08:43:32;11.07;;;7.22;;
23232;SDS011;11785;49.500;8.288;2022-10-18T08:46:04;14.43;;;7.93;;
23232;SDS011;11785;49.500;8.288;2022-10-18T08:48:34;9.90;;;6.82;;
23232;SDS011;11785;49.500;8.288;2022-10-18T08:53:53;10.20;;;5.72;;
23232;SDS011;11785;49.500;8.288;2022-10-18T08:56:27;9.60;;;6.22;;
23232;SDS011;11785;49.500;8.288;2022-10-18T08:58:52;9.07;;;6.28;;
23232;SDS011;11785;49.500;8.288;2022-10-18T09:09:43;12.18;;;4.97;;
23232;SDS011;11785;49.500;8.288;2022-10-18T09:18:00;7.68;;;3.88;;
23232;SDS011;11785;49.500;8.288;2022-10-18T09:23:20;10.63;;;5.15;;
23232;SDS011;11785;49.500;8.288;2022-10-18T09:25:53;10.10;;;5.47;;
23232;SDS011;11785;49.500;8.288;2022-10-18T09:33:44;10.52;;;6.00;;
23232;SDS011;11785;49.500;8.288;2022-10-18T09:36:18;9.55;;;6.05;;
23232;SDS011;11785;49.500;8.288;2022-10-18T09:38:54;16.58;;;6.57;;
23232;SDS011;11785;49.500;8.288;2022-10-18T09:41:24;15.05;;;7.05;;
23232;SDS011;11785;49.500;8.288;2022-10-18T09:44:13;13.23;;;6.00;;
23232;SDS011;11785;49.500;8.288;2022-10-18T09:46:44;9.40;;;6.18;;
23232;SDS011;11785;49.500;8.288;2022-10-18T09:49:18;16.85;;;6.30;;
23232;SDS011;11785;49.500;8.288;2022-10-18T09:51:49;9.70;;;6.43;;
23232;SDS011;11785;49.500;8.288;2022-10-18T09:56:50;10.82;;;5.70;;
23232;SDS011;11785;49.500;8.288;2022-10-18T09:59:30;16.45;;;6.30;;
23232;SDS011;11785;49.500;8.288;2022-10-18T10:02:05;7.20;;;5.72;;
23232;SDS011;11785;49.500;8.288;2022-10-18T10:04:33;9.52;;;5.60;;
23232;SDS011;11785;49.500;8.288;2022-10-18T10:06:59;9.18;;;5.53;;
23232;SDS011;11785;49.500;8.288;2022-10-18T10:09:27;8.45;;;5.85;;
23232;SDS011;11785;49.500;8.288;2022-10-18T10:11:55;8.60;;;5.65;;
23232;SDS011;11785;49.500;8.288;2022-10-18T10:17:44;11.25;;;5.78;;
23232;SDS011;11785;49.500;8.288;2022-10-18T10:20:27;6.75;;;4.90;;
23232;SDS011;11785;49.500;8.288;2022-10-18T10:23:05;8.40;;;5.20;;
23232;SDS011;11785;49.500;8.288;2022-10-18T10:25:47;12.25;;;5.85;;
23232;SDS011;11785;49.500;8.288;2022-10-18T10:28:17;9.32;;;4.30;;
23232;SDS011;11785;49.500;8.288;2022-10-18T10:30:48;6.13;;;3.67;;
23232;SDS011;11785;49.500;8.288;2022-10-18T10:33:28;5.97;;;3.40;;
23232;SDS011;11785;49.500;8.288;2022-10-18T10:36:00;3.75;;;3.17;;
23232;SDS011;11785;49.500;8.288;2022-10-18T10:38:28;4.43;;;3.13;;
23232;SDS011;11785;49.500;8.288;2022-10-18T10:40:55;5.20;;;3.05;;
23232;SDS011;11785;49.500;8.288;2022-10-18T10:48:54;7.53;;;3.72;;
23232;SDS011;11785;49.500;8.288;2022-10-18T10:53:56;5.70;;;3.33;;
23232;SDS011;11785;49.500;8.288;2022-10-18T10:56:30;5.57;;;3.65;;
23232;SDS011;11785;49.500;8.288;2022-10-18T10:59:17;12.02;;;3.80;;
23232;SDS011;11785;49.500;8.288;2022-10-18T11:01:44;3.67;;;2.85;;
23232;SDS011;11785;49.500;8.288;2022-10-18T11:04:24;4.45;;;3.03;;
23232;SDS011;11785;49.500;8.288;2022-10-18T11:06:52;6.53;;;3.10;;
23232;SDS011;11785;49.500;8.288;2022-10-18T11:22:38;7.22;;;2.90;;
23232;SDS011;11785;49.500;8.288;2022-10-18T11:25:21;4.57;;;2.30;;
23232;SDS011;11785;49.500;8.288;2022-10-18T11:28:02;7.35;;;2.60;;
23232;SDS011;11785;49.500;8.288;2022-10-18T11:33:25;3.80;;;2.58;;
23232;SDS011;11785;49.500;8.288;2022-10-18T11:38:52;2.83;;;2.50;;
23232;SDS011;11785;49.500;8.288;2022-10-18T11:46:49;5.30;;;2.42;;
23232;SDS011;11785;49.500;8.288;2022-10-18T11:49:30;3.30;;;2.28;;
23232;SDS011;11785;49.500;8.288;2022-10-18T11:58:27;6.10;;;2.45;;
23232;SDS011;11785;49.500;8.288;2022-10-18T12:04:03;5.80;;;2.30;;
23232;SDS011;11785;49.500;8.288;2022-10-18T12:06:39;6.15;;;3.03;;
23232;SDS011;11785;49.500;8.288;2022-10-18T12:09:09;4.90;;;2.38;;
23232;SDS011;11785;49.500;8.288;2022-10-18T12:11:57;3.95;;;2.15;;
23232;SDS011;11785;49.500;8.288;2022-10-18T12:14:31;3.60;;;2.15;;
23232;SDS011;11785;49.500;8.288;2022-10-18T12:17:02;6.95;;;1.90;;
23232;SDS011;11785;49.500;8.288;2022-10-18T12:19:32;2.95;;;1.98;;
23232;SDS011;11785;49.500;8.288;2022-10-18T12:22:21;2.20;;;1.70;;
23232;SDS011;11785;49.500;8.288;2022-10-18T12:25:05;7.07;;;1.63;;
23232;SDS011;11785;49.500;8.288;2022-10-18T12:27:44;3.97;;;1.30;;
23232;SDS011;11785;49.500;8.288;2022-10-18T12:30:23;5.70;;;1.48;;
23232;SDS011;11785;49.500;8.288;2022-10-18T12:33:00;3.38;;;1.65;;
23232;SDS011;11785;49.500;8.288;2022-10-18T12:35:59;2.78;;;1.40;;
23232;SDS011;11785;49.500;8.288;2022-10-18T12:38:57;2.00;;;1.40;;
23232;SDS011;11785;49.500;8.288;2022-10-18T12:41:26;4.85;;;1.63;;
23232;SDS011;11785;49.500;8.288;2022-10-18T12:44:03;2.50;;;1.42;;
23232;SDS011;11785;49.500;8.288;2022-10-18T12:46:50;1.83;;;1.17;;
23232;SDS011;11785;49.500;8.288;2022-10-18T12:51:53;1.80;;;1.25;;
23232;SDS011;11785;49.500;8.288;2022-10-18T12:54:34;2.25;;;1.20;;
23232;SDS011;11785;49.500;8.288;2022-10-18T12:57:03;3.38;;;2.42;;
23232;SDS011;11785;49.500;8.288;2022-10-18T13:07:38;3.17;;;1.42;;
23232;SDS011;11785;49.500;8.288;2022-10-18T13:15:38;5.05;;;1.02;;
23232;SDS011;11785;49.500;8.288;2022-10-18T13:19:09;1.83;;;0.90;;
23232;SDS011;11785;49.500;8.288;2022-10-18T13:26:44;2.50;;;1.02;;
23232;SDS011;11785;49.500;8.288;2022-10-18T13:29:21;2.83;;;1.02;;
23232;SDS011;11785;49.500;8.288;2022-10-18T13:32:18;5.30;;;1.48;;
23232;SDS011;11785;49.500;8.288;2022-10-18T13:35:40;2.75;;;0.90;;
23232;SDS011;11785;49.500;8.288;2022-10-18T13:38:32;2.90;;;1.33;;
23232;SDS011;11785;49.500;8.288;2022-10-18T13:41:24;1.45;;;1.00;;
23232;SDS011;11785;49.500;8.288;2022-10-18T13:46:18;1.00;;;0.70;;
23232;SDS011;11785;49.500;8.288;2022-10-18T13:48:45;0.70;;;0.70;;
23232;SDS011;11785;49.500;8.288;2022-10-18T13:53:53;3.35;;;1.02;;
23232;SDS011;11785;49.500;8.288;2022-10-18T14:09:25;1.60;;;1.08;;
23232;SDS011;11785;49.500;8.288;2022-10-18T14:11:55;1.50;;;1.20;;
23232;SDS011;11785;49.500;8.288;2022-10-18T14:14:39;2.30;;;0.85;;
23232;SDS011;11785;49.500;8.288;2022-10-18T14:25:44;2.15;;;1.30;;
23232;SDS011;11785;49.500;8.288;2022-10-18T14:28:19;1.45;;;1.30;;
23232;SDS011;11785;49.500;8.288;2022-10-18T14:33:23;2.58;;;1.50;;
23232;SDS011;11785;49.500;8.288;2022-10-18T14:36:08;1.50;;;1.38;;
23232;SDS011;11785;49.500;8.288;2022-10-18T14:41:32;2.35;;;1.30;;
23232;SDS011;11785;49.500;8.288;2022-10-18T14:44:47;2.83;;;1.92;;
23232;SDS011;11785;49.500;8.288;2022-10-18T14:49:40;4.63;;;1.80;;
23232;SDS011;11785;49.500;8.288;2022-10-18T14:52:09;4.60;;;2.20;;
23232;SDS011;11785;49.500;8.288;2022-10-18T14:54:39;2.53;;;1.60;;
23232;SDS011;11785;49.500;8.288;2022-10-18T14:57:06;2.88;;;1.70;;
23232;SDS011;11785;49.500;8.288;2022-10-18T15:00:00;2.75;;;1.95;;
23232;SDS011;11785;49.500;8.288;2022-10-18T15:02:28;3.80;;;1.75;;
23232;SDS011;11785;49.500;8.288;2022-10-18T15:04:57;2.67;;;1.90;;
23232;SDS011;11785;49.500;8.288;2022-10-18T15:07:31;2.00;;;1.65;;
23232;SDS011;11785;49.500;8.288;2022-10-18T15:09:58;59.10;;;32.08;;
23232;SDS011;11785;49.500;8.288;2022-10-18T15:12:26;16.08;;;8.90;;
23232;SDS011;11785;49.500;8.288;2022-10-18T15:14:53;6.38;;;3.40;;
23232;SDS011;11785;49.500;8.288;2022-10-18T15:17:21;4.13;;;2.40;;
23232;SDS011;11785;49.500;8.288;2022-10-18T15:19:54;4.32;;;2.08;;
23232;SDS011;11785;49.500;8.288;2022-10-18T15:22:25;3.60;;;1.75;;
23232;SDS011;11785;49.500;8.288;2022-10-18T15:27:36;2.83;;;1.70;;
23232;SDS011;11785;49.500;8.288;2022-10-18T15:32:59;2.35;;;1.30;;
23232;SDS011;11785;49.500;8.288;2022-10-18T15:35:30;5.38;;;1.05;;
23232;SDS011;11785;49.500;8.288;2022-10-18T15:38:12;5.60;;;0.90;;
23232;SDS011;11785;49.500;8.288;2022-10-18T15:41:00;1.58;;;0.95;;
23232;SDS011;11785;49.500;8.288;2022-10-18T15:45:56;4.20;;;1.13;;
23232;SDS011;11785;49.500;8.288;2022-10-18T15:48:25;2.55;;;0.90;;
23232;SDS011;11785;49.500;8.288;2022-10-18T15:50:58;1.73;;;0.90;;
23232;SDS011;11785;49.500;8.288;2022-10-18T15:56:27;3.05;;;1.40;;
23232;SDS011;11785;49.500;8.288;2022-10-18T15:59:03;2.03;;;1.33;;
23232;SDS011;11785;49.500;8.288;2022-10-18T16:01:35;0.82;;;0.63;;
23232;SDS011;11785;49.500;8.288;2022-10-18T16:06:50;0.90;;;0.73;;
23232;SDS011;11785;49.500;8.288;2022-10-18T16:09:17;3.20;;;0.80;;
23232;SDS011;11785;49.500;8.288;2022-10-18T16:11:45;1.58;;;1.17;;
23232;SDS011;11785;49.500;8.288;2022-10-18T16:14:13;1.42;;;1.30;;
23232;SDS011;11785;49.500;8.288;2022-10-18T16:16:39;2.92;;;1.20;;
23232;SDS011;11785;49.500;8.288;2022-10-18T16:19:05;4.75;;;2.08;;
23232;SDS011;11785;49.500;8.288;2022-10-18T16:21:32;4.63;;;2.47;;
23232;SDS011;11785;49.500;8.288;2022-10-18T16:23:59;4.03;;;1.17;;
23232;SDS011;11785;49.500;8.288;2022-10-18T16:26:25;1.40;;;0.95;;
23232;SDS011;11785;49.500;8.288;2022-10-18T16:28:52;1.48;;;1.10;;
23232;SDS011;11785;49.500;8.288;2022-10-18T16:31:19;3.13;;;1.20;;
23232;SDS011;11785;49.500;8.288;2022-10-18T16:33:46;5.05;;;2.55;;
23232;SDS011;11785;49.500;8.288;2022-10-18T16:36:17;3.03;;;1.80;;
23232;SDS011;11785;49.500;8.288;2022-10-18T16:38:44;3.08;;;1.50;;
23232;SDS011;11785;49.500;8.288;2022-10-18T16:41:11;1.30;;;1.05;;
23232;SDS011;11785;49.500;8.288;2022-10-18T16:43:37;1.45;;;1.00;;
23232;SDS011;11785;49.500;8.288;2022-10-18T16:46:04;3.17;;;0.80;;
23232;SDS011;11785;49.500;8.288;2022-10-18T16:48:30;1.77;;;0.95;;
23232;SDS011;11785;49.500;8.288;2022-10-18T16:50:56;3.05;;;1.35;;
23232;SDS011;11785;49.500;8.288;2022-10-18T16:53:22;1.50;;;0.85;;
23232;SDS011;11785;49.500;8.288;2022-10-18T16:55:58;4.78;;;0.90;;
23232;SDS011;11785;49.500;8.288;2022-10-18T16:58:26;1.00;;;1.00;;
23232;SDS011;11785;49.500;8.288;2022-10-18T17:00:53;2.10;;;1.10;;
23232;SDS011;11785;49.500;8.288;2022-10-18T17:03:19;1.08;;;0.93;;
23232;SDS011;11785;49.500;8.288;2022-10-18T17:05:45;1.80;;;1.20;;
23232;SDS011;11785;49.500;8.288;2022-10-18T17:08:24;3.13;;;1.25;;
23232;SDS011;11785;49.500;8.288;2022-10-18T17:10:52;2.35;;;1.25;;
23232;SDS011;11785;49.500;8.288;2022-10-18T17:13:20;2.55;;;1.40;;
23232;SDS011;11785;49.500;8.288;2022-10-18T17:15:46;1.80;;;1.25;;
23232;SDS011;11785;49.500;8.288;2022-10-18T17:18:13;1.80;;;1.42;;
23232;SDS011;11785;49.500;8.288;2022-10-18T17:20:41;1.73;;;1.30;;
23232;SDS011;11785;49.500;8.288;2022-10-18T17:23:07;2.55;;;1.70;;
23232;SDS011;11785;49.500;8.288;2022-10-18T17:25:37;1.77;;;1.67;;
23232;SDS011;11785;49.500;8.288;2022-10-18T17:28:04;2.80;;;1.88;;
23232;SDS011;11785;49.500;8.288;2022-10-18T17:30:31;2.55;;;1.90;;
23232;SDS011;11785;49.500;8.288;2022-10-18T17:32:57;3.15;;;1.83;;
23232;SDS011;11785;49.500;8.288;2022-10-18T17:35:23;4.25;;;1.90;;
23232;SDS011;11785;49.500;8.288;2022-10-18T17:37:49;4.25;;;2.05;;